sensor_id;sensor_type;location;lat;lon;timestamp;pressure;altitude;pressure_sealevel;temperature;humidity
55068;BME280;40965;52.368;9.712;2023-05-21T00:00:12;101207.72;;;12.81;100.00
55068;BME280;40965;52.368;9.712;2023-05-21T00:02:39;101201.69;;;12.70;100.00
55068;BME280;40965;52.368;9.712;2023-05-21T00:05:06;101195.63;;;12.62;100.00
55068;BME280;40965;52.368;9.712;2023-05-21T00:07:35;101198.28;;;12.58;100.00
55068;BME280;40965;52.368;9.712;2023-05-21T00:10:02;101191.38;;;12.48;100.00
55068;BME280;40965;52.368;9.712;2023-05-21T00:12:29;101189.66;;;12.41;100.00
55068;BME280;40965;52.368;9.712;2023-05-21T00:14:56;101189.72;;;12.36;100.00
55068;BME280;40965;52.368;9.712;2023-05-21T00:17:23;101188.03;;;12.31;100.00
55068;BME280;40965;52.368;9.712;2023-05-21T00:19:51;101180.16;;;12.26;100.00
55068;BME280;40965;52.368;9.712;2023-05-21T00:22:17;101177.56;;;12.23;100.00
55068;BME280;40965;52.368;9.712;2023-05-21T00:24:44;101176.72;;;12.19;100.00
55068;BME280;40965;52.368;9.712;2023-05-21T00:27:13;101172.38;;;12.17;100.00
55068;BME280;40965;52.368;9.712;2023-05-21T00:29:40;101171.53;;;12.12;100.00
55068;BME280;40965;52.368;9.712;2023-05-21T00:32:08;101168.03;;;12.10;100.00
55068;BME280;40965;52.368;9.712;2023-05-21T00:34:34;101173.31;;;12.06;100.00
55068;BME280;40965;52.368;9.712;2023-05-21T00:37:01;101169.81;;;12.04;100.00
55068;BME280;40965;52.368;9.712;2023-05-21T00:39:27;101168.94;;;12.04;100.00
55068;BME280;40965;52.368;9.712;2023-05-21T00:41:54;101163.72;;;12.02;100.00
55068;BME280;40965;52.368;9.712;2023-05-21T00:44:22;101160.22;;;12.00;100.00
55068;BME280;40965;52.368;9.712;2023-05-21T00:46:50;101161.09;;;12.02;100.00
55068;BME280;40965;52.368;9.712;2023-05-21T00:49:21;101154.97;;;12.03;100.00
55068;BME280;40965;52.368;9.712;2023-05-21T00:51:48;101149.72;;;12.03;100.00
55068;BME280;40965;52.368;9.712;2023-05-21T00:54:16;101156.69;;;12.04;100.00
55068;BME280;40965;52.368;9.712;2023-05-21T00:56:42;101153.19;;;12.04;100.00
55068;BME280;40965;52.368;9.712;2023-05-21T00:59:09;101148.81;;;12.04;100.00
55068;BME280;40965;52.368;9.712;2023-05-21T01:01:35;101149.72;;;12.03;100.00
55068;BME280;40965;52.368;9.712;2023-05-21T01:04:02;101150.56;;;12.05;100.00
55068;BME280;40965;52.368;9.712;2023-05-21T01:06:29;101147.06;;;12.05;100.00
55068;BME280;40965;52.368;9.712;2023-05-21T01:09:00;101145.34;;;12.04;100.00
55068;BME280;40965;52.368;9.712;2023-05-21T01:11:36;101144.47;;;12.00;100.00
55068;BME280;40965;52.368;9.712;2023-05-21T01:14:05;101146.25;;;12.00;100.00
55068;BME280;40965;52.368;9.712;2023-05-21T01:16:35;101148.00;;;11.98;100.00
55068;BME280;40965;52.368;9.712;2023-05-21T01:19:03;101144.50;;;11.99;100.00
55068;BME280;40965;52.368;9.712;2023-05-21T01:21:32;101134.88;;;11.96;100.00
55068;BME280;40965;52.368;9.712;2023-05-21T01:24:02;101137.50;;;11.95;100.00
55068;BME280;40965;52.368;9.712;2023-05-21T01:26:33;101143.63;;;11.94;100.00
55068;BME280;40965;52.368;9.712;2023-05-21T01:29:05;101144.50;;;11.92;100.00
55068;BME280;40965;52.368;9.712;2023-05-21T01:31:44;101141.00;;;11.92;100.00
55068;BME280;40965;52.368;9.712;2023-05-21T01:34:39;101138.41;;;11.90;100.00
55068;BME280;40965;52.368;9.712;2023-05-21T01:37:21;101140.16;;;11.88;100.00
55068;BME280;40965;52.368;9.712;2023-05-21T01:39:59;101138.41;;;11.86;100.00
55068;BME280;40965;52.368;9.712;2023-05-21T01:42:32;101134.94;;;11.81;100.00
55068;BME280;40965;52.368;9.712;2023-05-21T01:45:00;101141.13;;;11.75;100.00
55068;BME280;40965;52.368;9.712;2023-05-21T01:47:31;101132.41;;;11.68;100.00
55068;BME280;40965;52.368;9.712;2023-05-21T01:49:58;101135.06;;;11.64;100.00
55068;BME280;40965;52.368;9.712;2023-05-21T01:52:26;101127.22;;;11.61;100.00
55068;BME280;40965;52.368;9.712;2023-05-21T01:54:52;101129.84;;;11.57;100.00
55068;BME280;40965;52.368;9.712;2023-05-21T01:57:20;101126.38;;;11.55;100.00
55068;BME280;40965;52.368;9.712;2023-05-21T01:59:46;101125.53;;;11.50;100.00
55068;BME280;40965;52.368;9.712;2023-05-21T02:02:13;101129.06;;;11.45;100.00
55068;BME280;40965;52.368;9.712;2023-05-21T02:04:39;101132.53;;;11.40;100.00
55068;BME280;40965;52.368;9.712;2023-05-21T02:07:06;101130.81;;;11.36;100.00
55068;BME280;40965;52.368;9.712;2023-05-21T02:09:34;101135.22;;;11.34;100.00
55068;BME280;40965;52.368;9.712;2023-05-21T02:12:01;101134.31;;;11.34;100.00
55068;BME280;40965;52.368;9.712;2023-05-21T02:14:28;101129.13;;;11.31;100.00
55068;BME280;40965;52.368;9.712;2023-05-21T02:16:54;101131.75;;;11.29;100.00
55068;BME280;40965;52.368;9.712;2023-05-21T02:19:22;101121.25;;;11.31;100.00
55068;BME280;40965;52.368;9.712;2023-05-21T02:21:48;101120.38;;;11.32;100.00
55068;BME280;40965;52.368;9.712;2023-05-21T02:24:14;101118.59;;;11.34;100.00
55068;BME280;40965;52.368;9.712;2023-05-21T02:26:41;101120.38;;;11.33;100.00
55068;BME280;40965;52.368;9.712;2023-05-21T02:29:08;101114.28;;;11.28;100.00
55068;BME280;40965;52.368;9.712;2023-05-21T02:31:34;101113.41;;;11.23;100.00
55068;BME280;40965;52.368;9.712;2023-05-21T02:34:01;101114.28;;;11.22;100.00
55068;BME280;40965;52.368;9.712;2023-05-21T02:36:27;101118.66;;;11.21;100.00
55068;BME280;40965;52.368;9.712;2023-05-21T02:38:57;101109.94;;;11.22;100.00
55068;BME280;40965;52.368;9.712;2023-05-21T02:41:25;101116.06;;;11.21;100.00
55068;BME280;40965;52.368;9.712;2023-05-21T02:43:52;101109.91;;;11.21;100.00
55068;BME280;40965;52.368;9.712;2023-05-21T02:46:18;101110.81;;;11.21;100.00
55068;BME280;40965;52.368;9.712;2023-05-21T02:48:45;101112.53;;;11.21;100.00
55068;BME280;40965;52.368;9.712;2023-05-21T02:51:11;101109.06;;;11.19;100.00
55068;BME280;40965;52.368;9.712;2023-05-21T02:53:38;101106.44;;;11.19;100.00
55068;BME280;40965;52.368;9.712;2023-05-21T02:56:04;101107.31;;;11.18;100.00
55068;BME280;40965;52.368;9.712;2023-05-21T02:58:31;101103.84;;;11.13;100.00
55068;BME280;40965;52.368;9.712;2023-05-21T03:00:57;101106.47;;;11.08;100.00
55068;BME280;40965;52.368;9.712;2023-05-21T03:03:24;101105.63;;;11.06;100.00
55068;BME280;40965;52.368;9.712;2023-05-21T03:05:50;101105.63;;;11.06;100.00
55068;BME280;40965;52.368;9.712;2023-05-21T03:08:16;101102.13;;;11.04;100.00
55068;BME280;40965;52.368;9.712;2023-05-21T03:10:43;101108.22;;;11.03;100.00
55068;BME280;40965;52.368;9.712;2023-05-21T03:13:09;101109.13;;;11.03;100.00
55068;BME280;40965;52.368;9.712;2023-05-21T03:15:36;101107.41;;;10.99;100.00
55068;BME280;40965;52.368;9.712;2023-05-21T03:18:03;101107.41;;;10.99;100.00
55068;BME280;40965;52.368;9.712;2023-05-21T03:20:29;101096.94;;;10.98;100.00
55068;BME280;40965;52.368;9.712;2023-05-21T03:22:56;101092.56;;;10.93;100.00
55068;BME280;40965;52.368;9.712;2023-05-21T03:25:24;101093.47;;;10.92;100.00
55068;BME280;40965;52.368;9.712;2023-05-21T03:27:50;101082.97;;;10.91;100.00
55068;BME280;40965;52.368;9.712;2023-05-21T03:30:17;101089.06;;;10.88;100.00
55068;BME280;40965;52.368;9.712;2023-05-21T03:32:45;101092.59;;;10.87;100.00
55068;BME280;40965;52.368;9.712;2023-05-21T03:35:13;101087.34;;;10.86;100.00
55068;BME280;40965;52.368;9.712;2023-05-21T03:37:40;101080.38;;;10.85;100.00
55068;BME280;40965;52.368;9.712;2023-05-21T03:40:07;101094.31;;;10.87;100.00
55068;BME280;40965;52.368;9.712;2023-05-21T03:42:34;101092.56;;;10.86;100.00
55068;BME280;40965;52.368;9.712;2023-05-21T03:45:02;101089.97;;;10.86;100.00
55068;BME280;40965;52.368;9.712;2023-05-21T03:47:28;101085.63;;;10.86;100.00
55068;BME280;40965;52.368;9.712;2023-05-21T03:49:55;101097.81;;;10.89;100.00
55068;BME280;40965;52.368;9.712;2023-05-21T03:52:21;101093.44;;;10.89;100.00
55068;BME280;40965;52.368;9.712;2023-05-21T03:54:48;101086.47;;;10.90;100.00
55068;BME280;40965;52.368;9.712;2023-05-21T03:57:14;101087.31;;;10.92;100.00
55068;BME280;40965;52.368;9.712;2023-05-21T03:59:41;101088.22;;;10.92;100.00
55068;BME280;40965;52.368;9.712;2023-05-21T04:02:07;101089.97;;;10.95;100.00
55068;BME280;40965;52.368;9.712;2023-05-21T04:04:34;101091.69;;;10.95;100.00
55068;BME280;40965;52.368;9.712;2023-05-21T04:07:01;101089.06;;;10.98;100.00
55068;BME280;40965;52.368;9.712;2023-05-21T04:09:28;101103.88;;;10.99;100.00
55068;BME280;40965;52.368;9.712;2023-05-21T04:11:55;101089.06;;;10.99;100.00
55068;BME280;40965;52.368;9.712;2023-05-21T04:14:22;101087.28;;;11.01;100.00
55068;BME280;40965;52.368;9.712;2023-05-21T04:16:48;101097.78;;;11.04;100.00
55068;BME280;40965;52.368;9.712;2023-05-21T04:19:15;101102.13;;;11.07;100.00
55068;BME280;40965;52.368;9.712;2023-05-21T04:21:41;101102.97;;;11.11;100.00
55068;BME280;40965;52.368;9.712;2023-05-21T04:24:09;101093.34;;;11.16;100.00
55068;BME280;40965;52.368;9.712;2023-05-21T04:26:35;101099.44;;;11.21;100.00
55068;BME280;40965;52.368;9.712;2023-05-21T04:29:02;101099.41;;;11.29;100.00
55068;BME280;40965;52.368;9.712;2023-05-21T04:31:31;101108.09;;;11.38;100.00
55068;BME280;40965;52.368;9.712;2023-05-21T04:33:58;101101.03;;;11.48;100.00
55068;BME280;40965;52.368;9.712;2023-05-21T04:36:24;101101.00;;;11.56;100.00
55068;BME280;40965;52.368;9.712;2023-05-21T04:38:53;101104.47;;;11.64;100.00
55068;BME280;40965;52.368;9.712;2023-05-21T04:41:20;101104.41;;;11.73;100.00
55068;BME280;40965;52.368;9.712;2023-05-21T04:43:46;101097.38;;;11.79;100.00
55068;BME280;40965;52.368;9.712;2023-05-21T04:46:13;101093.84;;;11.84;100.00
55068;BME280;40965;52.368;9.712;2023-05-21T04:48:39;101093.78;;;11.94;100.00
55068;BME280;40965;52.368;9.712;2023-05-21T04:51:06;101092.84;;;12.04;100.00
55068;BME280;40965;52.368;9.712;2023-05-21T04:53:32;101092.81;;;12.10;100.00
55068;BME280;40965;52.368;9.712;2023-05-21T04:56:00;101098.88;;;12.17;100.00
55068;BME280;40965;52.368;9.712;2023-05-21T04:58:27;101094.44;;;12.23;100.00
55068;BME280;40965;52.368;9.712;2023-05-21T05:00:56;101098.78;;;12.28;100.00
55068;BME280;40965;52.368;9.712;2023-05-21T05:03:27;101092.59;;;12.32;100.00
55068;BME280;40965;52.368;9.712;2023-05-21T05:05:53;101088.16;;;12.41;100.00
55068;BME280;40965;52.368;9.712;2023-05-21T05:08:20;101091.59;;;12.47;100.00
55068;BME280;40965;52.368;9.712;2023-05-21T05:10:46;101099.47;;;12.48;100.00
55068;BME280;40965;52.368;9.712;2023-05-21T05:13:13;101093.31;;;12.51;100.00
55068;BME280;40965;52.368;9.712;2023-05-21T05:15:39;101087.19;;;12.52;100.00
55068;BME280;40965;52.368;9.712;2023-05-21T05:18:06;101096.75;;;12.56;100.00
55068;BME280;40965;52.368;9.712;2023-05-21T05:20:33;101099.31;;;12.64;100.00
55068;BME280;40965;52.368;9.712;2023-05-21T05:22:59;101093.13;;;12.69;100.00
55068;BME280;40965;52.368;9.712;2023-05-21T05:25:26;101097.44;;;12.73;100.00
55068;BME280;40965;52.368;9.712;2023-05-21T05:27:52;101092.09;;;12.81;100.00
55068;BME280;40965;52.368;9.712;2023-05-21T05:30:21;101084.22;;;12.84;100.00
55068;BME280;40965;52.368;9.712;2023-05-21T05:32:47;101086.78;;;12.89;100.00
55068;BME280;40965;52.368;9.712;2023-05-21T05:35:14;101084.97;;;12.93;100.00
55068;BME280;40965;52.368;9.712;2023-05-21T05:37:40;101087.50;;;13.02;100.00
55068;BME280;40965;52.368;9.712;2023-05-21T05:40:07;101083.84;;;13.14;100.00
55068;BME280;40965;52.368;9.712;2023-05-21T05:42:33;101079.41;;;13.19;100.00
55068;BME280;40965;52.368;9.712;2023-05-21T05:45:00;101088.97;;;13.26;100.00
55068;BME280;40965;52.368;9.712;2023-05-21T05:47:26;101095.84;;;13.35;100.00
55068;BME280;40965;52.368;9.712;2023-05-21T05:49:53;101090.56;;;13.35;100.00
55068;BME280;40965;52.368;9.712;2023-05-21T05:52:20;101097.59;;;13.37;100.00
55068;BME280;40965;52.368;9.712;2023-05-21T05:54:46;101089.66;;;13.42;100.00
55068;BME280;40965;52.368;9.712;2023-05-21T05:57:12;101090.44;;;13.49;100.00
55068;BME280;40965;52.368;9.712;2023-05-21T05:59:39;101093.81;;;13.59;100.00
55068;BME280;40965;52.368;9.712;2023-05-21T06:02:05;101091.06;;;13.65;100.00
55068;BME280;40965;52.368;9.712;2023-05-21T06:04:32;101097.94;;;13.75;99.65
55068;BME280;40965;52.368;9.712;2023-05-21T06:06:58;101090.81;;;13.82;99.23
55068;BME280;40965;52.368;9.712;2023-05-21T06:09:25;101085.56;;;13.80;99.67
55068;BME280;40965;52.368;9.712;2023-05-21T06:11:51;101099.63;;;13.81;99.65
55068;BME280;40965;52.368;9.712;2023-05-21T06:14:18;101085.53;;;13.85;100.00
55068;BME280;40965;52.368;9.712;2023-05-21T06:16:44;101090.69;;;13.91;99.55
55068;BME280;40965;52.368;9.712;2023-05-21T06:19:10;101085.34;;;13.96;99.32
55068;BME280;40965;52.368;9.712;2023-05-21T06:21:37;101084.31;;;14.04;99.04
55068;BME280;40965;52.368;9.712;2023-05-21T06:24:04;101080.75;;;14.09;98.60
55068;BME280;40965;52.368;9.712;2023-05-21T06:26:30;101087.66;;;14.14;99.07
55068;BME280;40965;52.368;9.712;2023-05-21T06:28:58;101085.84;;;14.18;98.63
55068;BME280;40965;52.368;9.712;2023-05-21T06:31:25;101091.81;;;14.29;98.41
55068;BME280;40965;52.368;9.712;2023-05-21T06:33:52;101082.84;;;14.39;97.45
55068;BME280;40965;52.368;9.712;2023-05-21T06:36:18;101088.84;;;14.48;96.93
55068;BME280;40965;52.368;9.712;2023-05-21T06:38:45;101077.31;;;14.55;96.85
55068;BME280;40965;52.368;9.712;2023-05-21T06:41:12;101080.66;;;14.63;96.31
55068;BME280;40965;52.368;9.712;2023-05-21T06:43:39;101074.38;;;14.70;95.96
55068;BME280;40965;52.368;9.712;2023-05-21T06:46:24;101075.09;;;14.80;95.78
55068;BME280;40965;52.368;9.712;2023-05-21T06:51:50;101076.97;;;15.17;93.87
55068;BME280;40965;52.368;9.712;2023-05-21T06:54:16;101068.94;;;15.24;93.16
55068;BME280;40965;52.368;9.712;2023-05-21T06:56:43;101074.28;;;15.20;93.17
55068;BME280;40965;52.368;9.712;2023-05-21T06:59:09;101069.91;;;15.19;93.43
55068;BME280;40965;52.368;9.712;2023-05-21T07:01:36;101075.06;;;15.26;93.36
55068;BME280;40965;52.368;9.712;2023-05-21T07:04:06;101070.38;;;15.38;93.54
55068;BME280;40965;52.368;9.712;2023-05-21T07:06:33;101067.53;;;15.48;92.37
55068;BME280;40965;52.368;9.712;2023-05-21T07:09:00;101069.19;;;15.52;92.23
55068;BME280;40965;52.368;9.712;2023-05-21T07:11:27;101068.16;;;15.59;92.13
55068;BME280;40965;52.368;9.712;2023-05-21T07:13:56;101073.22;;;15.67;91.79
55068;BME280;40965;52.368;9.712;2023-05-21T07:16:25;101073.00;;;15.78;91.06
55068;BME280;40965;52.368;9.712;2023-05-21T07:18:53;101071.28;;;15.75;91.34
55068;BME280;40965;52.368;9.712;2023-05-21T07:21:19;101075.59;;;15.81;91.21
55068;BME280;40965;52.368;9.712;2023-05-21T07:23:45;101067.53;;;15.87;90.72
55068;BME280;40965;52.368;9.712;2023-05-21T07:26:12;101075.13;;;16.01;90.83
55068;BME280;40965;52.368;9.712;2023-05-21T07:28:41;101073.88;;;16.14;90.24
55068;BME280;40965;52.368;9.712;2023-05-21T07:31:08;101063.03;;;16.25;89.36
55068;BME280;40965;52.368;9.712;2023-05-21T07:33:36;101078.34;;;16.47;89.02
55068;BME280;40965;52.368;9.712;2023-05-21T07:36:03;101067.22;;;16.67;88.37
55068;BME280;40965;52.368;9.712;2023-05-21T07:38:32;101067.63;;;16.84;87.81
55068;BME280;40965;52.368;9.712;2023-05-21T07:40:59;101067.00;;;17.06;87.02
55068;BME280;40965;52.368;9.712;2023-05-21T07:43:27;101059.41;;;17.25;85.96
55068;BME280;40965;52.368;9.712;2023-05-21T07:45:54;101052.13;;;17.32;85.84
55068;BME280;40965;52.368;9.712;2023-05-21T07:48:20;101065.00;;;17.44;85.30
55068;BME280;40965;52.368;9.712;2023-05-21T07:50:47;101068.09;;;17.59;84.35
55068;BME280;40965;52.368;9.712;2023-05-21T07:53:16;101061.09;;;17.56;83.68
55068;BME280;40965;52.368;9.712;2023-05-21T07:55:45;101055.94;;;17.51;84.14
55068;BME280;40965;52.368;9.712;2023-05-21T07:58:16;101049.31;;;17.66;83.22
55068;BME280;40965;52.368;9.712;2023-05-21T08:00:44;101052.59;;;18.01;83.04
55068;BME280;40965;52.368;9.712;2023-05-21T08:03:13;101053.28;;;18.33;80.93
55068;BME280;40965;52.368;9.712;2023-05-21T08:05:45;101059.25;;;18.64;79.49
55068;BME280;40965;52.368;9.712;2023-05-21T08:08:28;101051.72;;;18.77;78.46
55068;BME280;40965;52.368;9.712;2023-05-21T08:10:55;101064.47;;;18.67;79.38
55068;BME280;40965;52.368;9.712;2023-05-21T08:13:21;101054.16;;;18.83;79.17
55068;BME280;40965;52.368;9.712;2023-05-21T08:15:48;101054.22;;;18.81;78.12
55068;BME280;40965;52.368;9.712;2023-05-21T08:18:16;101053.28;;;18.82;78.16
55068;BME280;40965;52.368;9.712;2023-05-21T08:20:44;101052.63;;;18.77;78.31
55068;BME280;40965;52.368;9.712;2023-05-21T08:23:12;101058.06;;;18.73;78.50
55068;BME280;40965;52.368;9.712;2023-05-21T08:25:41;101056.97;;;19.04;77.34
55068;BME280;40965;52.368;9.712;2023-05-21T08:28:07;101055.38;;;19.45;75.78
55068;BME280;40965;52.368;9.712;2023-05-21T08:30:34;101059.06;;;19.63;75.20
55068;BME280;40965;52.368;9.712;2023-05-21T08:33:00;101064.34;;;19.87;74.17
55068;BME280;40965;52.368;9.712;2023-05-21T08:35:27;101071.59;;;20.04;73.04
55068;BME280;40965;52.368;9.712;2023-05-21T08:37:55;101071.72;;;20.01;73.62
55068;BME280;40965;52.368;9.712;2023-05-21T08:40:22;101058.91;;;20.11;72.86
55068;BME280;40965;52.368;9.712;2023-05-21T08:42:49;101051.47;;;20.40;72.59
55068;BME280;40965;52.368;9.712;2023-05-21T08:45:20;101046.94;;;20.62;71.33
55068;BME280;40965;52.368;9.712;2023-05-21T08:47:54;101045.16;;;20.63;71.29
55068;BME280;40965;52.368;9.712;2023-05-21T08:50:23;101043.78;;;21.13;70.46
55068;BME280;40965;52.368;9.712;2023-05-21T08:52:51;101040.22;;;21.51;69.82
55068;BME280;40965;52.368;9.712;2023-05-21T08:55:19;101037.81;;;21.83;68.30
55068;BME280;40965;52.368;9.712;2023-05-21T08:57:47;101047.03;;;21.75;68.29
55068;BME280;40965;52.368;9.712;2023-05-21T09:00:15;101048.59;;;21.79;67.88
55068;BME280;40965;52.368;9.712;2023-05-21T09:02:41;101044.31;;;21.94;66.24
55068;BME280;40965;52.368;9.712;2023-05-21T09:05:11;101045.13;;;21.60;67.29
55068;BME280;40965;52.368;9.712;2023-05-21T09:07:42;101046.94;;;21.59;67.58
55068;BME280;40965;52.368;9.712;2023-05-21T09:10:13;101053.75;;;21.65;68.03
55068;BME280;40965;52.368;9.712;2023-05-21T09:12:40;101058.34;;;21.61;67.73
55068;BME280;40965;52.368;9.712;2023-05-21T09:15:07;101054.03;;;21.59;68.38
55068;BME280;40965;52.368;9.712;2023-05-21T09:17:34;101061.31;;;21.92;67.11
55068;BME280;40965;52.368;9.712;2023-05-21T09:20:05;101045.88;;;22.16;65.81
55068;BME280;40965;52.368;9.712;2023-05-21T09:22:39;101066.13;;;22.20;65.72
55068;BME280;40965;52.368;9.712;2023-05-21T09:25:08;101056.94;;;22.08;66.25
55068;BME280;40965;52.368;9.712;2023-05-21T09:27:39;101048.31;;;22.21;66.20
55068;BME280;40965;52.368;9.712;2023-05-21T09:30:10;101051.34;;;22.30;65.27
55068;BME280;40965;52.368;9.712;2023-05-21T09:32:38;101054.38;;;22.42;65.83
55068;BME280;40965;52.368;9.712;2023-05-21T09:35:14;101055.66;;;22.68;64.57
55068;BME280;40965;52.368;9.712;2023-05-21T09:37:42;101052.69;;;22.90;63.91
55068;BME280;40965;52.368;9.712;2023-05-21T09:40:20;101055.13;;;22.95;62.29
55068;BME280;40965;52.368;9.712;2023-05-21T09:42:52;101059.44;;;22.64;64.13
55068;BME280;40965;52.368;9.712;2023-05-21T09:45:25;101048.72;;;22.48;64.72
55068;BME280;40965;52.368;9.712;2023-05-21T09:47:54;101049.88;;;22.60;64.69
55068;BME280;40965;52.368;9.712;2023-05-21T09:50:22;101052.47;;;22.77;63.39
55068;BME280;40965;52.368;9.712;2023-05-21T09:52:51;101053.59;;;22.73;64.00
55068;BME280;40965;52.368;9.712;2023-05-21T09:55:24;101049.97;;;23.08;62.94
55068;BME280;40965;52.368;9.712;2023-05-21T09:57:52;101050.06;;;23.38;61.50
55068;BME280;40965;52.368;9.712;2023-05-21T10:00:21;101053.13;;;23.78;61.10
55068;BME280;40965;52.368;9.712;2023-05-21T10:02:53;101042.69;;;24.94;56.81
55068;BME280;40965;52.368;9.712;2023-05-21T10:05:25;101048.00;;;25.08;55.09
55068;BME280;40965;52.368;9.712;2023-05-21T10:07:59;101047.53;;;25.16;53.41
55068;BME280;40965;52.368;9.712;2023-05-21T10:10:28;101035.63;;;25.89;51.03
55068;BME280;40965;52.368;9.712;2023-05-21T10:13:03;101036.44;;;26.30;48.87
55068;BME280;40965;52.368;9.712;2023-05-21T10:15:35;101041.69;;;26.45;48.05
55068;BME280;40965;52.368;9.712;2023-05-21T10:18:04;101037.28;;;26.95;46.82
55068;BME280;40965;52.368;9.712;2023-05-21T10:20:32;101025.28;;;27.25;44.98
55068;BME280;40965;52.368;9.712;2023-05-21T10:23:01;101025.47;;;27.59;44.00
55068;BME280;40965;52.368;9.712;2023-05-21T10:25:27;101024.44;;;27.73;44.86
55068;BME280;40965;52.368;9.712;2023-05-21T10:27:54;101025.88;;;28.82;42.73
55068;BME280;40965;52.368;9.712;2023-05-21T10:30:23;101017.69;;;29.50;41.11
55068;BME280;40965;52.368;9.712;2023-05-21T10:32:49;101012.06;;;30.38;38.94
55068;BME280;40965;52.368;9.712;2023-05-21T10:35:17;101012.25;;;30.77;36.98
55068;BME280;40965;52.368;9.712;2023-05-21T10:37:44;101011.47;;;30.34;38.49
55068;BME280;40965;52.368;9.712;2023-05-21T10:40:11;101008.50;;;30.38;38.63
55068;BME280;40965;52.368;9.712;2023-05-21T10:46:06;101004.16;;;31.57;34.89
55068;BME280;40965;52.368;9.712;2023-05-21T10:48:54;101007.84;;;31.95;34.38
55068;BME280;40965;52.368;9.712;2023-05-21T10:51:27;;;;32.00;
55068;BME280;40965;52.368;9.712;2023-05-21T10:54:32;100996.50;;;32.49;33.62
55068;BME280;40965;52.368;9.712;2023-05-21T11:00:07;100983.19;;;32.18;34.76
55068;BME280;40965;52.368;9.712;2023-05-21T11:02:36;100984.28;;;32.35;34.22
55068;BME280;40965;52.368;9.712;2023-05-21T11:05:03;100979.53;;;33.03;33.23
55068;BME280;40965;52.368;9.712;2023-05-21T11:07:49;100971.78;;;32.90;31.72
55068;BME280;40965;52.368;9.712;2023-05-21T11:10:39;100971.56;;;33.01;32.23
55068;BME280;40965;52.368;9.712;2023-05-21T11:13:15;100974.91;;;33.13;31.59
55068;BME280;40965;52.368;9.712;2023-05-21T11:21:06;100961.75;;;34.68;30.13
55068;BME280;40965;52.368;9.712;2023-05-21T11:26:16;100962.59;;;33.37;31.55
55068;BME280;40965;52.368;9.712;2023-05-21T11:31:29;100946.59;;;34.22;30.20
55068;BME280;40965;52.368;9.712;2023-05-21T11:34:12;100948.69;;;34.71;29.14
55068;BME280;40965;52.368;9.712;2023-05-21T11:36:40;100953.38;;;34.95;29.43
55068;BME280;40965;52.368;9.712;2023-05-21T11:39:12;100951.00;;;34.23;30.34
55068;BME280;40965;52.368;9.712;2023-05-21T11:42:00;100951.16;;;34.91;28.94
55068;BME280;40965;52.368;9.712;2023-05-21T11:44:40;100945.25;;;34.53;28.64
55068;BME280;40965;52.368;9.712;2023-05-21T11:47:08;100945.19;;;34.44;29.63
55068;BME280;40965;52.368;9.712;2023-05-21T11:49:37;100937.72;;;34.12;29.61
55068;BME280;40965;52.368;9.712;2023-05-21T11:52:05;100941.88;;;33.54;30.22
55068;BME280;40965;52.368;9.712;2023-05-21T11:54:38;100942.88;;;32.98;30.92
55068;BME280;40965;52.368;9.712;2023-05-21T11:57:10;100938.16;;;33.19;30.75
55068;BME280;40965;52.368;9.712;2023-05-21T11:59:40;100936.53;;;33.26;30.79
55068;BME280;40965;52.368;9.712;2023-05-21T12:02:06;100934.00;;;33.87;30.51
55068;BME280;40965;52.368;9.712;2023-05-21T12:04:34;100940.41;;;34.81;29.41
55068;BME280;40965;52.368;9.712;2023-05-21T12:07:09;100938.50;;;34.30;29.71
55068;BME280;40965;52.368;9.712;2023-05-21T12:12:08;100934.28;;;34.36;29.76
55068;BME280;40965;52.368;9.712;2023-05-21T12:14:37;100928.97;;;34.00;30.16
55068;BME280;40965;52.368;9.712;2023-05-21T12:17:05;100929.94;;;34.17;30.25
55068;BME280;40965;52.368;9.712;2023-05-21T12:19:32;100937.41;;;35.17;28.34
55068;BME280;40965;52.368;9.712;2023-05-21T12:22:03;100931.34;;;35.65;27.87
55068;BME280;40965;52.368;9.712;2023-05-21T12:24:33;100929.09;;;35.19;28.28
55068;BME280;40965;52.368;9.712;2023-05-21T12:27:03;100928.41;;;35.17;28.56
55068;BME280;40965;52.368;9.712;2023-05-21T12:29:35;100920.81;;;34.26;29.23
55068;BME280;40965;52.368;9.712;2023-05-21T12:32:04;100926.13;;;32.85;31.49
55068;BME280;40965;52.368;9.712;2023-05-21T12:34:49;100926.03;;;32.49;32.12
55068;BME280;40965;52.368;9.712;2023-05-21T12:37:25;100924.38;;;32.66;31.72
55068;BME280;40965;52.368;9.712;2023-05-21T12:39:57;100930.66;;;32.39;31.59
55068;BME280;40965;52.368;9.712;2023-05-21T12:42:30;100916.63;;;32.43;32.38
55068;BME280;40965;52.368;9.712;2023-05-21T12:44:59;100917.69;;;32.60;31.88
55068;BME280;40965;52.368;9.712;2023-05-21T12:47:27;100926.50;;;32.72;31.80
55068;BME280;40965;52.368;9.712;2023-05-21T12:49:57;100928.31;;;32.72;31.73
55068;BME280;40965;52.368;9.712;2023-05-21T12:52:24;100928.44;;;32.14;32.38
55068;BME280;40965;52.368;9.712;2023-05-21T12:54:53;100919.59;;;31.75;33.08
55068;BME280;40965;52.368;9.712;2023-05-21T12:57:23;100918.72;;;31.55;33.55
55068;BME280;40965;52.368;9.712;2023-05-21T13:02:30;100918.06;;;32.10;32.70
55068;BME280;40965;52.368;9.712;2023-05-21T13:05:01;100912.34;;;32.51;32.04
55068;BME280;40965;52.368;9.712;2023-05-21T13:07:30;100907.25;;;32.65;31.70
55068;BME280;40965;52.368;9.712;2023-05-21T13:09:58;100908.09;;;32.94;31.64
55068;BME280;40965;52.368;9.712;2023-05-21T13:12:29;100901.25;;;33.44;30.65
55068;BME280;40965;52.368;9.712;2023-05-21T13:14:57;100905.19;;;33.68;30.48
55068;BME280;40965;52.368;9.712;2023-05-21T13:17:26;100906.59;;;32.99;30.97